createdAt,value
2019-04-01T05:00:21.649Z,1.97
2019-04-01T05:02:51.600Z,2.30
2019-04-01T05:05:21.657Z,2.47
2019-04-01T05:07:51.622Z,2.75
2019-04-01T05:10:21.604Z,2.35
2019-04-01T05:12:51.602Z,2.52
2019-04-01T05:15:21.557Z,3.20
2019-04-01T05:17:51.539Z,2.35
2019-04-01T05:20:21.485Z,2.47
2019-04-01T05:22:51.643Z,2.35
2019-04-01T05:25:21.585Z,2.62
2019-04-01T05:27:53.973Z,2.25
2019-04-01T05:30:23.928Z,2.33
2019-04-01T05:32:55.717Z,2.25
2019-04-01T05:35:26.447Z,2.77
2019-04-01T05:37:56.511Z,2.27
2019-04-01T05:40:26.734Z,2.37
2019-04-01T05:42:56.709Z,2.27
2019-04-01T05:45:26.737Z,2.25
2019-04-01T05:47:58.368Z,2.75
2019-04-01T05:50:28.335Z,2.45
2019-04-01T05:52:58.312Z,2.72
2019-04-01T05:55:28.274Z,2.58
2019-04-01T05:57:58.536Z,2.77
2019-04-01T06:00:32.623Z,2.65
2019-04-01T06:03:02.689Z,3.00
2019-04-01T06:05:32.654Z,2.77
2019-04-01T06:08:04.243Z,2.70
2019-04-01T06:10:35.917Z,3.08
2019-04-01T06:13:05.887Z,2.58
2019-04-01T06:15:35.935Z,3.52
2019-04-01T06:18:05.967Z,3.58
2019-04-01T06:24:24.951Z,3.40
2019-04-01T06:26:54.993Z,3.62
2019-04-01T06:29:25.045Z,3.65
2019-04-01T06:31:54.975Z,3.70
2019-04-01T06:34:25.114Z,4.45
2019-04-01T06:36:55.327Z,4.83
2019-04-01T06:39:25.303Z,4.47
2019-04-01T06:41:55.242Z,4.80
2019-04-01T06:44:25.224Z,4.87
2019-04-01T06:46:55.169Z,4.50
2019-04-01T06:49:25.135Z,4.80
2019-04-01T06:51:55.117Z,4.78
2019-04-01T06:54:25.223Z,4.80
2019-04-01T06:56:55.198Z,3.70
2019-04-01T06:59:25.139Z,4.37
2019-04-01T07:01:55.274Z,3.95
2019-04-01T07:04:25.219Z,4.58
2019-04-01T07:06:55.196Z,4.08
2019-04-01T07:09:25.141Z,4.00
2019-04-01T07:11:55.367Z,4.50
2019-04-01T07:14:25.587Z,3.75
2019-04-01T07:16:56.023Z,3.92
2019-04-01T07:19:26.115Z,3.12
2019-04-01T07:21:56.085Z,3.30
2019-04-01T07:24:26.030Z,3.15
2019-04-01T07:26:56.001Z,3.60
2019-04-01T07:29:25.990Z,2.75
2019-04-01T07:31:57.068Z,3.27
2019-04-01T07:34:27.017Z,4.03
2019-04-01T07:36:56.980Z,3.22
2019-04-01T07:39:26.940Z,3.05
2019-04-01T07:41:56.898Z,3.10
2019-04-01T07:44:27.280Z,2.85
2019-04-01T07:46:57.316Z,2.37
2019-04-01T07:49:28.500Z,2.27
2019-04-01T07:51:58.459Z,3.20
2019-04-01T07:54:28.675Z,2.37
2019-04-01T07:56:58.652Z,2.17
2019-04-01T07:59:28.591Z,2.40
2019-04-01T08:05:41.402Z,1.80
2019-04-01T08:08:11.648Z,2.25
2019-04-01T08:10:41.607Z,2.12
2019-04-01T08:13:11.546Z,1.82
2019-04-01T08:15:41.528Z,1.85
2019-04-01T08:18:11.472Z,2.10
2019-04-01T08:20:41.497Z,1.70
2019-04-01T08:23:11.591Z,1.87
2019-04-01T08:25:41.558Z,1.47
2019-04-01T08:28:11.494Z,1.80
2019-04-01T08:30:41.464Z,1.52
2019-04-01T08:33:11.394Z,1.40
2019-04-01T08:35:41.375Z,1.50
2019-04-01T08:38:11.585Z,1.70
2019-04-01T08:40:41.554Z,1.70
2019-04-01T08:43:11.501Z,1.72
2019-04-01T08:45:41.539Z,1.87
2019-04-01T08:48:11.550Z,1.60
2019-04-01T08:50:41.536Z,1.87
2019-04-01T08:53:11.486Z,2.00
2019-04-01T08:55:41.495Z,1.27
2019-04-01T08:58:11.435Z,1.70
2019-04-01T09:00:41.423Z,1.65
2019-04-01T09:03:11.364Z,1.30
2019-04-01T09:05:41.450Z,1.75
2019-04-01T09:08:11.491Z,1.70
2019-04-01T09:10:43.312Z,1.45
2019-04-01T09:13:14.494Z,1.42
2019-04-01T09:15:44.641Z,1.82
2019-04-01T09:18:14.582Z,1.65
2019-04-01T09:20:44.574Z,1.90
2019-04-01T09:23:14.522Z,1.80
2019-04-01T09:25:44.493Z,1.72
2019-04-01T09:28:14.447Z,1.50
2019-04-01T09:30:44.428Z,2.15
2019-04-01T09:33:14.380Z,2.35
2019-04-01T09:35:44.367Z,2.12
2019-04-01T09:38:14.501Z,1.82
2019-04-01T09:40:44.454Z,1.65
2019-04-01T09:43:14.542Z,1.92
2019-04-01T09:45:44.466Z,1.45
2019-04-01T09:48:14.433Z,1.55
2019-04-01T09:50:44.390Z,1.72
2019-04-01T09:53:14.363Z,1.65
2019-04-01T09:55:44.317Z,1.60
2019-04-01T09:58:14.276Z,2.70
2019-04-01T10:00:45.938Z,2.00
2019-04-01T10:03:15.977Z,1.70
2019-04-01T10:05:45.931Z,1.85
2019-04-01T10:08:15.902Z,2.12
2019-04-01T10:10:45.854Z,1.92
2019-04-01T10:13:15.823Z,1.80
2019-04-01T10:15:45.768Z,2.05
2019-04-01T10:18:15.749Z,1.85
2019-04-01T10:20:45.697Z,1.92
2019-04-01T10:23:15.648Z,1.87
2019-04-01T10:25:45.616Z,2.02
2019-04-01T10:28:15.565Z,1.80
2019-04-01T10:30:45.533Z,1.92
2019-04-01T10:33:15.552Z,2.17
2019-04-01T10:35:45.528Z,1.70
2019-04-01T10:38:15.470Z,1.70
2019-04-01T10:40:45.431Z,1.90
2019-04-01T10:43:15.470Z,2.12
2019-04-01T10:45:45.437Z,2.10
2019-04-01T10:48:15.536Z,1.80
2019-04-01T10:50:45.517Z,2.02
2019-04-01T10:53:15.550Z,1.75
2019-04-01T10:55:45.993Z,1.72
2019-04-01T10:58:15.929Z,1.80
2019-04-01T11:00:46.115Z,1.70
2019-04-01T11:03:16.097Z,1.72
2019-04-01T11:05:49.163Z,1.50
2019-04-01T11:08:19.149Z,1.47
2019-04-01T11:10:49.105Z,1.20
2019-04-01T11:13:19.055Z,1.27
2019-04-01T11:15:49.179Z,1.22
2019-04-01T11:18:20.234Z,1.70
2019-04-01T11:20:50.219Z,1.50
2019-04-01T11:23:20.172Z,1.70
2019-04-01T11:25:50.143Z,1.20
2019-04-01T11:28:20.167Z,1.37
2019-04-01T11:30:50.149Z,1.42
2019-04-01T11:33:20.089Z,1.40
2019-04-01T11:35:50.104Z,2.00
2019-04-01T11:38:20.089Z,1.72
2019-04-01T11:40:50.171Z,2.17
2019-04-01T11:43:20.108Z,1.65
2019-04-01T11:45:50.086Z,1.62
2019-04-01T11:48:20.094Z,1.47
2019-04-01T11:50:50.071Z,1.72
2019-04-01T11:53:20.013Z,1.70
2019-04-01T11:55:49.982Z,1.62
2019-04-01T11:58:19.956Z,1.57
2019-04-01T12:00:49.900Z,1.50
2019-04-01T12:03:20.217Z,1.52
2019-04-01T12:05:50.212Z,1.80
2019-04-01T12:08:20.236Z,1.57
2019-04-01T12:10:50.229Z,1.75
2019-04-01T12:13:20.207Z,1.85
2019-04-01T12:15:50.179Z,1.50
2019-04-01T12:18:20.108Z,1.60
2019-04-01T12:20:50.079Z,1.77
2019-04-01T12:23:20.105Z,2.00
2019-04-01T12:25:50.074Z,1.75
2019-04-01T12:28:20.206Z,2.17
2019-04-01T12:30:50.178Z,2.12
2019-04-01T12:33:20.115Z,1.75
2019-04-01T12:35:50.106Z,2.50
2019-04-01T12:38:20.050Z,2.37
2019-04-01T12:40:50.095Z,2.10
2019-04-01T12:43:23.385Z,1.80
2019-04-01T12:45:51.982Z,1.90
2019-04-01T12:48:25.339Z,1.98
2019-04-01T12:50:53.591Z,1.47
2019-04-01T12:53:23.558Z,1.60
2019-04-01T12:55:54.606Z,1.55
2019-04-01T12:58:25.367Z,1.40
2019-04-01T13:00:56.591Z,1.60
2019-04-01T13:03:26.549Z,1.67
2019-04-01T13:05:56.499Z,1.92
2019-04-01T13:08:26.492Z,1.32
2019-04-01T13:10:56.810Z,1.30
2019-04-01T13:13:26.796Z,2.35
2019-04-01T13:15:56.764Z,1.40
2019-04-01T13:18:26.709Z,1.60
2019-04-01T13:20:56.680Z,1.32
2019-04-01T13:23:26.639Z,1.50
2019-04-01T13:25:56.606Z,1.67
2019-04-01T13:28:26.734Z,1.35
2019-04-01T13:30:56.686Z,1.65
2019-04-01T13:33:26.639Z,1.47
2019-04-01T13:35:56.615Z,1.75
2019-04-01T13:38:26.585Z,2.40
2019-04-01T13:40:56.541Z,1.57
2019-04-01T13:43:26.511Z,1.95
2019-04-01T13:45:56.480Z,1.80
2019-04-01T13:48:26.423Z,1.32
2019-04-01T13:50:57.067Z,1.60
2019-04-01T13:53:27.878Z,1.80
2019-04-01T13:55:58.600Z,1.37
2019-04-01T13:58:28.551Z,1.87
2019-04-01T14:00:58.539Z,1.80
2019-04-01T14:03:29.144Z,1.85
2019-04-01T14:05:59.380Z,1.80
2019-04-01T14:08:30.420Z,2.00
2019-04-01T14:11:00.377Z,2.10
2019-04-01T14:13:30.344Z,2.10
2019-04-01T14:16:01.377Z,1.70
2019-04-01T14:18:31.359Z,2.00
2019-04-01T14:21:15.334Z,1.90
2019-04-01T14:23:32.911Z,1.72
2019-04-01T14:26:02.889Z,2.10
2019-04-01T14:28:32.839Z,1.90
2019-04-01T14:31:02.826Z,1.92
2019-04-01T14:33:32.977Z,1.42
2019-04-01T14:36:04.723Z,1.45
2019-04-01T14:38:34.811Z,1.47
2019-04-01T14:41:04.823Z,1.77
2019-04-01T14:43:34.784Z,2.37
2019-04-01T14:46:05.829Z,2.15
2019-04-01T14:48:35.922Z,1.82
2019-04-01T14:51:05.891Z,1.80
2019-04-01T14:53:36.111Z,1.90
2019-04-01T14:56:06.143Z,1.90
2019-04-01T14:58:36.306Z,1.60
2019-04-01T15:01:06.838Z,1.57
2019-04-01T15:03:36.853Z,1.75
2019-04-01T15:06:08.096Z,1.98
2019-04-01T15:08:38.056Z,1.50
2019-04-01T15:11:08.208Z,1.95
2019-04-01T15:13:39.141Z,1.57
2019-04-01T15:16:09.491Z,1.70
2019-04-01T15:18:39.454Z,2.02
2019-04-01T15:21:11.647Z,1.55
2019-04-01T15:23:41.132Z,2.05
2019-04-01T15:26:11.135Z,1.62
2019-04-01T15:28:41.090Z,1.40
2019-04-01T15:31:11.159Z,1.47
2019-04-01T15:33:41.320Z,2.12
2019-04-01T15:36:11.437Z,2.35
2019-04-01T15:38:41.888Z,2.20
2019-04-01T15:41:11.917Z,1.70
2019-04-01T15:43:41.866Z,1.62
2019-04-01T15:46:12.369Z,2.08
2019-04-01T15:48:42.874Z,1.60
2019-04-01T15:51:13.507Z,1.50
2019-04-01T15:53:44.135Z,1.70
2019-04-01T15:56:14.867Z,1.82
2019-04-01T15:58:45.394Z,1.95
2019-04-01T16:01:16.032Z,2.08
2019-04-01T16:03:46.554Z,1.62
2019-04-01T16:06:17.084Z,1.92
2019-04-01T16:08:47.611Z,1.90
2019-04-01T16:11:18.950Z,1.87
2019-04-01T16:13:49.589Z,1.72
2019-04-01T16:16:20.221Z,1.70
2019-04-01T16:18:50.850Z,1.55
2019-04-01T16:21:22.111Z,1.87
2019-04-01T16:23:53.645Z,1.55
2019-04-01T16:26:25.096Z,2.05
2019-04-01T16:28:58.593Z,2.25
2019-04-01T16:31:29.143Z,1.37
2019-04-01T16:33:59.753Z,2.15
2019-04-01T16:36:30.384Z,1.87
2019-04-01T16:39:01.012Z,1.95
2019-04-01T16:41:34.226Z,1.45
2019-04-01T16:44:06.087Z,1.55
2019-04-01T16:46:36.794Z,1.87
2019-04-01T16:49:07.957Z,1.50
2019-04-01T16:51:41.209Z,2.72
2019-04-01T16:54:12.071Z,2.50
2019-04-01T16:56:42.699Z,1.90
2019-04-01T16:59:15.143Z,2.20
2019-04-01T17:01:46.722Z,1.90
2019-04-01T17:04:17.486Z,1.90
2019-04-01T17:06:48.186Z,1.87
2019-04-01T17:09:20.156Z,2.25
2019-04-01T17:11:54.271Z,2.17
2019-04-01T17:14:24.883Z,1.82
2019-04-01T17:16:57.058Z,2.22
2019-04-01T17:19:30.352Z,2.12
2019-04-01T17:22:01.115Z,2.40
2019-04-01T17:24:31.818Z,2.00
2019-04-01T17:27:05.826Z,2.12
2019-04-01T17:29:36.560Z,2.05
2019-04-01T17:32:08.315Z,2.33
2019-04-01T17:34:39.561Z,2.05
2019-04-01T17:37:10.498Z,2.15
2019-04-01T17:39:41.881Z,2.60
2019-04-01T17:42:14.935Z,2.05
2019-04-01T17:44:47.000Z,1.90
2019-04-01T17:47:17.936Z,1.90
2019-04-01T17:49:51.017Z,1.95
2019-04-01T17:52:25.164Z,1.80
2019-04-01T17:54:56.073Z,1.90
2019-04-01T17:57:26.809Z,3.58
2019-04-01T17:59:58.255Z,2.60
2019-04-01T18:02:30.487Z,2.15
2019-04-01T18:05:01.307Z,2.33
2019-04-01T18:07:33.424Z,1.75
2019-04-01T18:10:06.512Z,2.42
2019-04-01T18:12:38.883Z,2.10
2019-04-01T18:15:10.741Z,2.10
2019-04-01T18:17:41.679Z,2.00
2019-04-01T18:20:12.560Z,1.72
2019-04-01T18:22:43.350Z,2.20
2019-04-01T18:25:15.736Z,2.00
2019-04-01T18:27:46.559Z,3.20
2019-04-01T18:30:17.551Z,2.35
2019-04-01T18:32:53.370Z,2.25
2019-04-01T18:35:25.095Z,2.05
2019-04-01T18:37:56.042Z,2.25
2019-04-01T18:40:33.091Z,2.02
2019-04-01T18:43:01.506Z,7.95
2019-04-01T18:45:35.105Z,3.08
2019-04-01T18:48:08.804Z,2.00
2019-04-01T18:50:39.356Z,2.17
2019-04-01T18:53:11.091Z,2.58
2019-04-01T18:55:43.581Z,2.40
2019-04-01T18:58:16.109Z,2.52
2019-04-01T19:00:47.272Z,2.50
2019-04-01T19:03:23.922Z,2.17
2019-04-01T19:05:58.270Z,2.60
2019-04-01T19:11:02.816Z,2.70
2019-04-01T19:13:35.930Z,2.67
2019-04-01T19:16:07.661Z,2.50
2019-04-01T19:18:39.756Z,2.72
2019-04-01T19:21:10.756Z,2.70
2019-04-01T19:23:41.313Z,3.02
2019-04-01T19:26:11.966Z,3.00
2019-04-01T19:28:44.285Z,4.10
2019-04-01T19:31:15.019Z,4.03
2019-04-01T19:33:46.272Z,3.90
2019-04-01T19:36:16.894Z,3.92
2019-04-01T19:38:47.635Z,3.67
2019-04-01T19:41:18.257Z,3.65
2019-04-01T19:43:51.312Z,3.77
2019-04-01T19:46:22.794Z,4.30
2019-04-01T19:48:53.424Z,5.50
2019-04-01T19:51:24.056Z,4.53
2019-04-01T19:53:57.860Z,4.40
2019-04-01T19:56:28.492Z,4.72
2019-04-01T19:58:59.120Z,4.85
2019-04-01T20:01:29.865Z,4.35
2019-04-01T20:04:00.382Z,3.60
2019-04-01T20:06:31.012Z,3.52
2019-04-01T20:09:01.543Z,3.37
2019-04-01T20:11:33.603Z,4.15
2019-04-01T20:14:04.474Z,3.20
2019-04-01T20:16:34.967Z,2.85
2019-04-01T20:19:06.726Z,3.00
2019-04-01T20:21:38.919Z,2.90
2019-04-01T20:24:09.460Z,3.05
2019-04-01T20:26:40.151Z,3.40
2019-04-01T20:29:11.133Z,3.20
2019-04-01T20:31:42.335Z,3.02
2019-04-01T20:34:19.464Z,2.70
2019-04-01T20:36:45.132Z,3.10
2019-04-01T20:39:15.762Z,4.33
2019-04-01T20:41:46.289Z,2.85
2019-04-01T20:44:16.931Z,2.70
2019-04-01T20:46:47.449Z,2.95
2019-04-01T20:49:17.789Z,2.95
2019-04-01T20:51:48.401Z,2.90
2019-04-01T20:54:18.827Z,2.80
2019-04-01T20:56:49.491Z,3.10
2019-04-01T20:59:19.784Z,2.95
2019-04-01T21:01:50.104Z,2.77
2019-04-01T21:04:20.073Z,2.85
2019-04-01T21:06:50.545Z,2.75
2019-04-01T21:09:24.124Z,3.00
2019-04-01T21:11:55.800Z,2.65
2019-04-01T21:14:26.148Z,2.62
2019-04-01T21:16:56.449Z,2.90
2019-04-01T21:19:27.286Z,3.22
2019-04-01T21:21:57.707Z,3.10
2019-04-01T21:24:27.933Z,2.72
2019-04-01T21:26:58.060Z,3.02
2019-04-01T21:29:28.072Z,3.00
